DLH5AM EDDF-EDDM
Flight info
| Callsign | DLH5AM |
|---|---|
| Flight time | 0h 38m |
| Altitude | 21000 |
| Route | CINDY8S CINDY Z74 HAREM T104 ROKIL ROKIL1B |
| Aircraft | A388/J-SADE2E3FGHIJ3J4J5M1RWXY/LB1D1 |
Departure
| Time | 2026-05-05 12:41 |
|---|---|
| Airport | Frankfurt Main Airport (EDDF) |
Arrival
| Time | 2026-05-05 13:19 |
|---|---|
| Airport | Munich Airport (EDDM) |
| Time | Latitude | Longitude | Altitude | Speed | Heading |
|---|---|---|---|---|---|
| 2026-05-05 12:14 | 50.04670 | 8.56048 | 367 ft | 0 kts | 338° |
| 2026-05-05 12:27 | 50.04656 | 8.56056 | 368 ft | 4 kts | 340° |
| 2026-05-05 12:27 | 50.04631 | 8.56069 | 367 ft | 3 kts | 340° |
| 2026-05-05 12:28 | 50.04610 | 8.56083 | 367 ft | 4 kts | 321° |
| 2026-05-05 12:28 | 50.04596 | 8.56114 | 366 ft | 4 kts | 275° |
| 2026-05-05 12:28 | 50.04599 | 8.56151 | 365 ft | 2 kts | 251° |
| 2026-05-05 12:28 | 50.04592 | 8.56121 | 365 ft | 4 kts | 249° |
| 2026-05-05 12:29 | 50.04582 | 8.56082 | 365 ft | 4 kts | 249° |
| 2026-05-05 12:29 | 50.04579 | 8.56069 | 365 ft | 0 kts | 250° |
| 2026-05-05 12:32 | 50.04579 | 8.56067 | 365 ft | 2 kts | 250° |
| 2026-05-05 12:32 | 50.04577 | 8.56061 | 365 ft | 0 kts | 250° |
| 2026-05-05 12:32 | 50.04577 | 8.56058 | 365 ft | 2 kts | 250° |
| 2026-05-05 12:33 | 50.04561 | 8.56000 | 365 ft | 9 kts | 233° |
| 2026-05-05 12:33 | 50.04507 | 8.55948 | 367 ft | 10 kts | 201° |
| 2026-05-05 12:33 | 50.04431 | 8.55913 | 370 ft | 15 kts | 189° |
| 2026-05-05 12:33 | 50.04346 | 8.55929 | 364 ft | 1 kts | 155° |
| 2026-05-05 12:34 | 50.04308 | 8.55951 | 364 ft | 11 kts | 162° |
| 2026-05-05 12:34 | 50.04244 | 8.55940 | 366 ft | 9 kts | 216° |
| 2026-05-05 12:34 | 50.04219 | 8.55857 | 364 ft | 10 kts | 252° |
| 2026-05-05 12:34 | 50.04189 | 8.55729 | 362 ft | 15 kts | 249° |
| 2026-05-05 12:35 | 50.04146 | 8.55548 | 362 ft | 20 kts | 250° |
| 2026-05-05 12:35 | 50.04093 | 8.55330 | 366 ft | 23 kts | 250° |
| 2026-05-05 12:35 | 50.04037 | 8.55094 | 366 ft | 24 kts | 249° |
| 2026-05-05 12:35 | 50.03976 | 8.54844 | 364 ft | 25 kts | 249° |
| 2026-05-05 12:36 | 50.03916 | 8.54586 | 358 ft | 25 kts | 250° |
| 2026-05-05 12:36 | 50.03888 | 8.54469 | 358 ft | 10 kts | 249° |
| 2026-05-05 12:36 | 50.03855 | 8.54359 | 359 ft | 13 kts | 234° |
| 2026-05-05 12:36 | 50.03799 | 8.54217 | 360 ft | 17 kts | 248° |
| 2026-05-05 12:37 | 50.03757 | 8.54045 | 356 ft | 17 kts | 250° |
| 2026-05-05 12:37 | 50.03714 | 8.53866 | 358 ft | 18 kts | 249° |
| 2026-05-05 12:37 | 50.03670 | 8.53681 | 357 ft | 19 kts | 249° |
| 2026-05-05 12:37 | 50.03622 | 8.53490 | 351 ft | 19 kts | 250° |
| 2026-05-05 12:38 | 50.03575 | 8.53296 | 355 ft | 20 kts | 249° |
| 2026-05-05 12:38 | 50.03527 | 8.53096 | 351 ft | 20 kts | 249° |
| 2026-05-05 12:38 | 50.03477 | 8.52894 | 350 ft | 20 kts | 247° |
| 2026-05-05 12:38 | 50.03425 | 8.52691 | 335 ft | 20 kts | 250° |
| 2026-05-05 12:39 | 50.03412 | 8.52637 | 337 ft | 3 kts | 250° |
| 2026-05-05 12:39 | 50.03403 | 8.52607 | 335 ft | 1 kts | 216° |
| 2026-05-05 12:39 | 50.03357 | 8.52591 | 337 ft | 15 kts | 179° |
| 2026-05-05 12:39 | 50.03325 | 8.52593 | 338 ft | 0 kts | 179° |
| 2026-05-05 12:40 | 50.03294 | 8.52594 | 337 ft | 17 kts | 179° |
| 2026-05-05 12:40 | 50.02924 | 8.52598 | 338 ft | 91 kts | 180° |
| 2026-05-05 12:40 | 50.02079 | 8.52604 | 336 ft | 147 kts | 179° |
| 2026-05-05 12:40 | 50.00972 | 8.52626 | 560 ft | 163 kts | 181° |
| 2026-05-05 12:41 | 49.99858 | 8.52713 | 1126 ft | 161 kts | 177° |
| 2026-05-05 12:41 | 49.98720 | 8.52856 | 1613 ft | 168 kts | 176° |
| 2026-05-05 12:41 | 49.97534 | 8.52950 | 2022 ft | 173 kts | 178° |
| 2026-05-05 12:41 | 49.96318 | 8.53208 | 2257 ft | 186 kts | 156° |
| 2026-05-05 12:42 | 49.95320 | 8.54588 | 2431 ft | 204 kts | 121° |
| 2026-05-05 12:42 | 49.94711 | 8.56684 | 2621 ft | 226 kts | 112° |
| 2026-05-05 12:42 | 49.94166 | 8.59022 | 3283 ft | 233 kts | 105° |
| 2026-05-05 12:42 | 49.93932 | 8.61527 | 4150 ft | 235 kts | 92° |
| 2026-05-05 12:43 | 49.93928 | 8.64123 | 4788 ft | 249 kts | 92° |
| 2026-05-05 12:43 | 49.93848 | 8.66917 | 5239 ft | 268 kts | 97° |
| 2026-05-05 12:43 | 49.93276 | 8.69662 | 5980 ft | 269 kts | 124° |
| 2026-05-05 12:43 | 49.91971 | 8.71711 | 6784 ft | 269 kts | 145° |
| 2026-05-05 12:44 | 49.90417 | 8.73366 | 7562 ft | 272 kts | 147° |
| 2026-05-05 12:44 | 49.88902 | 8.75169 | 8353 ft | 276 kts | 137° |
| 2026-05-05 12:44 | 49.87700 | 8.77458 | 9156 ft | 281 kts | 123° |
| 2026-05-05 12:44 | 49.86747 | 8.80124 | 9919 ft | 284 kts | 120° |
| 2026-05-05 12:45 | 49.85772 | 8.82873 | 10307 ft | 302 kts | 121° |
| 2026-05-05 12:45 | 49.84711 | 8.85810 | 10502 ft | 322 kts | 121° |
| 2026-05-05 12:45 | 49.83584 | 8.88908 | 10844 ft | 335 kts | 121° |
| 2026-05-05 12:45 | 49.82434 | 8.92072 | 11489 ft | 338 kts | 121° |
| 2026-05-05 12:46 | 49.81274 | 8.95262 | 12129 ft | 342 kts | 121° |
| 2026-05-05 12:46 | 49.80103 | 8.98479 | 12781 ft | 345 kts | 121° |
| 2026-05-05 12:46 | 49.78912 | 9.01748 | 13438 ft | 349 kts | 121° |
| 2026-05-05 12:46 | 49.77714 | 9.05032 | 14044 ft | 352 kts | 121° |
| 2026-05-05 12:47 | 49.76571 | 9.08400 | 14623 ft | 356 kts | 116° |
| 2026-05-05 12:47 | 49.75725 | 9.12029 | 15194 ft | 361 kts | 108° |
| 2026-05-05 12:47 | 49.75086 | 9.15802 | 15729 ft | 363 kts | 111° |
| 2026-05-05 12:47 | 49.74049 | 9.19365 | 16264 ft | 364 kts | 123° |
| 2026-05-05 12:48 | 49.72605 | 9.22510 | 16858 ft | 364 kts | 133° |
| 2026-05-05 12:48 | 49.70918 | 9.25434 | 17407 ft | 366 kts | 134° |
| 2026-05-05 12:48 | 49.69227 | 9.28402 | 17965 ft | 369 kts | 134° |
| 2026-05-05 12:48 | 49.67526 | 9.31408 | 18451 ft | 372 kts | 134° |
| 2026-05-05 12:49 | 49.65822 | 9.34424 | 18933 ft | 374 kts | 134° |
| 2026-05-05 12:49 | 49.64100 | 9.37468 | 19396 ft | 377 kts | 134° |
| 2026-05-05 12:49 | 49.62375 | 9.40512 | 19861 ft | 379 kts | 134° |
| 2026-05-05 12:49 | 49.60627 | 9.43591 | 20340 ft | 381 kts | 134° |
| 2026-05-05 12:50 | 49.58877 | 9.46668 | 20729 ft | 385 kts | 134° |
| 2026-05-05 12:50 | 49.57089 | 9.49805 | 20838 ft | 394 kts | 134° |
| 2026-05-05 12:50 | 49.55244 | 9.53036 | 20827 ft | 408 kts | 134° |
| 2026-05-05 12:50 | 49.53358 | 9.56338 | 20824 ft | 412 kts | 133° |
| 2026-05-05 12:51 | 49.51470 | 9.59644 | 20825 ft | 410 kts | 133° |
| 2026-05-05 12:51 | 49.49591 | 9.62931 | 20829 ft | 410 kts | 134° |
| 2026-05-05 12:51 | 49.47704 | 9.66225 | 20826 ft | 410 kts | 134° |
| 2026-05-05 12:51 | 49.45817 | 9.69514 | 20831 ft | 410 kts | 134° |
| 2026-05-05 12:52 | 49.44571 | 9.71684 | 20826 ft | 410 kts | 134° |
| 2026-05-05 12:52 | 49.42681 | 9.74970 | 20828 ft | 410 kts | 134° |
| 2026-05-05 12:52 | 49.40796 | 9.78244 | 20829 ft | 410 kts | 134° |
| 2026-05-05 12:52 | 49.38905 | 9.81525 | 20829 ft | 410 kts | 134° |
| 2026-05-05 12:53 | 49.37012 | 9.84803 | 20814 ft | 409 kts | 134° |
| 2026-05-05 12:53 | 49.35123 | 9.88066 | 20828 ft | 409 kts | 134° |
| 2026-05-05 12:53 | 49.33233 | 9.91325 | 20829 ft | 409 kts | 134° |
| 2026-05-05 12:53 | 49.31344 | 9.94576 | 20830 ft | 409 kts | 134° |
| 2026-05-05 12:54 | 49.27555 | 10.01091 | 20828 ft | 409 kts | 134° |
| 2026-05-05 12:54 | 49.25664 | 10.04336 | 20827 ft | 409 kts | 134° |
| 2026-05-05 12:54 | 49.23769 | 10.07585 | 20829 ft | 409 kts | 134° |
| 2026-05-05 12:55 | 49.21879 | 10.10822 | 20825 ft | 409 kts | 134° |
| 2026-05-05 12:55 | 49.19981 | 10.14067 | 20827 ft | 409 kts | 134° |
| 2026-05-05 12:55 | 49.18110 | 10.17266 | 20836 ft | 409 kts | 134° |
| 2026-05-05 12:55 | 49.16215 | 10.20508 | 20837 ft | 409 kts | 134° |
| 2026-05-05 12:56 | 49.14325 | 10.23742 | 20840 ft | 407 kts | 134° |
| 2026-05-05 12:56 | 49.12409 | 10.26944 | 20846 ft | 407 kts | 136° |
| 2026-05-05 12:56 | 49.10465 | 10.30065 | 20852 ft | 407 kts | 136° |
| 2026-05-05 12:56 | 49.08507 | 10.33178 | 20853 ft | 406 kts | 136° |
| 2026-05-05 12:57 | 49.06551 | 10.36291 | 20854 ft | 407 kts | 136° |
| 2026-05-05 12:57 | 49.04605 | 10.39401 | 20812 ft | 401 kts | 136° |
| 2026-05-05 12:57 | 49.02708 | 10.42442 | 20599 ft | 389 kts | 136° |
| 2026-05-05 12:57 | 49.00867 | 10.45393 | 20342 ft | 378 kts | 136° |
| 2026-05-05 12:58 | 48.99063 | 10.48278 | 20089 ft | 374 kts | 136° |
| 2026-05-05 12:58 | 48.97267 | 10.51139 | 19849 ft | 374 kts | 136° |
| 2026-05-05 12:58 | 48.95488 | 10.53969 | 19604 ft | 374 kts | 136° |
| 2026-05-05 12:58 | 48.93693 | 10.56824 | 19355 ft | 372 kts | 136° |
| 2026-05-05 12:59 | 48.91904 | 10.59669 | 19103 ft | 372 kts | 136° |
| 2026-05-05 12:59 | 48.90116 | 10.62510 | 18879 ft | 372 kts | 136° |
| 2026-05-05 12:59 | 48.88329 | 10.65347 | 18634 ft | 370 kts | 136° |
| 2026-05-05 13:00 | 48.84775 | 10.70981 | 18169 ft | 368 kts | 137° |
| 2026-05-05 13:00 | 48.83006 | 10.73780 | 17888 ft | 366 kts | 137° |
| 2026-05-05 13:01 | 48.77740 | 10.82076 | 17091 ft | 360 kts | 137° |
| 2026-05-05 13:01 | 48.76001 | 10.84801 | 16822 ft | 359 kts | 137° |
| 2026-05-05 13:01 | 48.74263 | 10.87522 | 16551 ft | 358 kts | 136° |
| 2026-05-05 13:01 | 48.72534 | 10.90229 | 16299 ft | 357 kts | 136° |
| 2026-05-05 13:02 | 48.70810 | 10.92924 | 16042 ft | 355 kts | 136° |
| 2026-05-05 13:02 | 48.69088 | 10.95614 | 15786 ft | 356 kts | 136° |
| 2026-05-05 13:02 | 48.67365 | 10.98299 | 15533 ft | 355 kts | 136° |
| 2026-05-05 13:02 | 48.65644 | 11.00978 | 15290 ft | 354 kts | 136° |
| 2026-05-05 13:03 | 48.63930 | 11.03643 | 15036 ft | 353 kts | 136° |
| 2026-05-05 13:03 | 48.62243 | 11.06263 | 14795 ft | 351 kts | 136° |
| 2026-05-05 13:03 | 48.60540 | 11.08905 | 14558 ft | 350 kts | 136° |
| 2026-05-05 13:03 | 48.58841 | 11.11532 | 14301 ft | 348 kts | 137° |
| 2026-05-05 13:04 | 48.57005 | 11.13931 | 13722 ft | 351 kts | 144° |
| 2026-05-05 13:04 | 48.54971 | 11.16007 | 13002 ft | 353 kts | 147° |
| 2026-05-05 13:04 | 48.53182 | 11.18424 | 12819 ft | 341 kts | 128° |
| 2026-05-05 13:04 | 48.52116 | 11.21544 | 12533 ft | 335 kts | 109° |
| 2026-05-05 13:05 | 48.51881 | 11.25041 | 12058 ft | 338 kts | 85° |
| 2026-05-05 13:05 | 48.52356 | 11.28508 | 11908 ft | 337 kts | 78° |
| 2026-05-05 13:05 | 48.52928 | 11.31946 | 11771 ft | 338 kts | 78° |
| 2026-05-05 13:05 | 48.53470 | 11.35411 | 11628 ft | 339 kts | 78° |
| 2026-05-05 13:06 | 48.54006 | 11.38867 | 11515 ft | 338 kts | 78° |
| 2026-05-05 13:06 | 48.54535 | 11.42316 | 11385 ft | 337 kts | 78° |
| 2026-05-05 13:06 | 48.55047 | 11.45768 | 10964 ft | 339 kts | 78° |
| 2026-05-05 13:06 | 48.55548 | 11.49240 | 10488 ft | 337 kts | 79° |
| 2026-05-05 13:07 | 48.56038 | 11.52701 | 10027 ft | 336 kts | 79° |
| 2026-05-05 13:07 | 48.56520 | 11.56131 | 9592 ft | 332 kts | 79° |
| 2026-05-05 13:07 | 48.56754 | 11.59512 | 9451 ft | 317 kts | 94° |
| 2026-05-05 13:07 | 48.56374 | 11.62704 | 9328 ft | 303 kts | 109° |
| 2026-05-05 13:08 | 48.55679 | 11.65602 | 9189 ft | 292 kts | 111° |
| 2026-05-05 13:08 | 48.55008 | 11.68494 | 8732 ft | 292 kts | 110° |
| 2026-05-05 13:08 | 48.54350 | 11.71390 | 8362 ft | 291 kts | 110° |
| 2026-05-05 13:08 | 48.53696 | 11.74267 | 7960 ft | 289 kts | 110° |
| 2026-05-05 13:09 | 48.53046 | 11.77123 | 7736 ft | 285 kts | 110° |
| 2026-05-05 13:09 | 48.52400 | 11.79945 | 7533 ft | 284 kts | 110° |
| 2026-05-05 13:09 | 48.51756 | 11.82746 | 7315 ft | 281 kts | 110° |
| 2026-05-05 13:09 | 48.51115 | 11.85531 | 7107 ft | 280 kts | 110° |
| 2026-05-05 13:10 | 48.50474 | 11.88310 | 6899 ft | 279 kts | 110° |
| 2026-05-05 13:10 | 48.49846 | 11.91027 | 6670 ft | 279 kts | 110° |
| 2026-05-05 13:10 | 48.49205 | 11.93794 | 6461 ft | 280 kts | 110° |
| 2026-05-05 13:10 | 48.48565 | 11.96553 | 6248 ft | 278 kts | 110° |
| 2026-05-05 13:11 | 48.47931 | 11.99292 | 6099 ft | 275 kts | 110° |
| 2026-05-05 13:11 | 48.47300 | 12.02006 | 6055 ft | 273 kts | 110° |
| 2026-05-05 13:11 | 48.46685 | 12.04651 | 5993 ft | 263 kts | 110° |
| 2026-05-05 13:11 | 48.46090 | 12.07204 | 5887 ft | 252 kts | 110° |
| 2026-05-05 13:12 | 48.45522 | 12.09643 | 5795 ft | 241 kts | 110° |
| 2026-05-05 13:12 | 48.44979 | 12.11971 | 5700 ft | 230 kts | 110° |
| 2026-05-05 13:12 | 48.44485 | 12.14100 | 5579 ft | 201 kts | 111° |
| 2026-05-05 13:12 | 48.43861 | 12.15888 | 4985 ft | 193 kts | 139° |
| 2026-05-05 13:13 | 48.42645 | 12.16570 | 4330 ft | 190 kts | 183° |
| 2026-05-05 13:13 | 48.41365 | 12.16098 | 3732 ft | 191 kts | 199° |
| 2026-05-05 13:13 | 48.40192 | 12.15216 | 3307 ft | 188 kts | 218° |
| 2026-05-05 13:13 | 48.39411 | 12.13665 | 2886 ft | 186 kts | 244° |
| 2026-05-05 13:14 | 48.39043 | 12.11846 | 2724 ft | 185 kts | 258° |
| 2026-05-05 13:14 | 48.38840 | 12.09944 | 2783 ft | 179 kts | 262° |
| 2026-05-05 13:14 | 48.38689 | 12.08079 | 3105 ft | 181 kts | 263° |
| 2026-05-05 13:14 | 48.38544 | 12.06216 | 3587 ft | 181 kts | 263° |
| 2026-05-05 13:15 | 48.38399 | 12.04327 | 3960 ft | 183 kts | 263° |
| 2026-05-05 13:15 | 48.38256 | 12.02455 | 3780 ft | 168 kts | 263° |
| 2026-05-05 13:15 | 48.38128 | 12.00835 | 3792 ft | 153 kts | 263° |
| 2026-05-05 13:15 | 48.38010 | 11.99255 | 3711 ft | 148 kts | 263° |
| 2026-05-05 13:16 | 48.37893 | 11.97798 | 3560 ft | 138 kts | 262° |
| 2026-05-05 13:16 | 48.37746 | 11.96378 | 3538 ft | 139 kts | 262° |
| 2026-05-05 13:16 | 48.37619 | 11.94838 | 3277 ft | 153 kts | 264° |
| 2026-05-05 13:16 | 48.37530 | 11.93241 | 2955 ft | 152 kts | 265° |
| 2026-05-05 13:17 | 48.37429 | 11.91664 | 2757 ft | 152 kts | 263° |
| 2026-05-05 13:17 | 48.37286 | 11.90087 | 2575 ft | 151 kts | 262° |
| 2026-05-05 13:17 | 48.37158 | 11.88494 | 2382 ft | 155 kts | 264° |
| 2026-05-05 13:17 | 48.37041 | 11.86882 | 2146 ft | 154 kts | 264° |
| 2026-05-05 13:18 | 48.36903 | 11.85279 | 1914 ft | 157 kts | 264° |
| 2026-05-05 13:18 | 48.36803 | 11.83658 | 1720 ft | 153 kts | 264° |
| 2026-05-05 13:18 | 48.36681 | 11.82117 | 1523 ft | 148 kts | 265° |
| 2026-05-05 13:18 | 48.36582 | 11.80691 | 1490 ft | 115 kts | 264° |
| 2026-05-05 13:19 | 48.36509 | 11.79788 | 1485 ft | 58 kts | 263° |
| 2026-05-05 13:19 | 48.36468 | 11.79278 | 1490 ft | 45 kts | 263° |
| 2026-05-05 13:19 | 48.36452 | 11.79086 | 1479 ft | 14 kts | 263° |
| 2026-05-05 13:19 | 48.36428 | 11.78969 | 1479 ft | 5 kts | 249° |
| 2026-05-05 13:20 | 48.36425 | 11.78955 | 1475 ft | 2 kts | 244° |
| 2026-05-05 13:20 | 48.36401 | 11.78904 | 1487 ft | 15 kts | 230° |
| 2026-05-05 13:20 | 48.36313 | 11.78734 | 1478 ft | 22 kts | 233° |
| 2026-05-05 13:20 | 48.36220 | 11.78547 | 1478 ft | 16 kts | 234° |
| 2026-05-05 13:21 | 48.36184 | 11.78497 | 1477 ft | 14 kts | 203° |
| 2026-05-05 13:21 | 48.36070 | 11.78489 | 1482 ft | 17 kts | 173° |
| 2026-05-05 13:21 | 48.36039 | 11.78548 | 1479 ft | 13 kts | 81° |
| 2026-05-05 13:21 | 48.36050 | 11.78759 | 1477 ft | 22 kts | 83° |
| 2026-05-05 13:22 | 48.36068 | 11.78988 | 1481 ft | 22 kts | 83° |
| 2026-05-05 13:22 | 48.36083 | 11.79173 | 1488 ft | 4 kts | 83° |
| 2026-05-05 13:22 | 48.36087 | 11.79230 | 1481 ft | 8 kts | 83° |
| 2026-05-05 13:22 | 48.36073 | 11.79300 | 1478 ft | 8 kts | 131° |
| 2026-05-05 13:23 | 48.36024 | 11.79328 | 1475 ft | 9 kts | 173° |
| 2026-05-05 13:23 | 48.35948 | 11.79343 | 1481 ft | 12 kts | 163° |
| 2026-05-05 13:23 | 48.35859 | 11.79382 | 1475 ft | 14 kts | 172° |
| 2026-05-05 13:23 | 48.35751 | 11.79400 | 1484 ft | 17 kts | 173° |
| 2026-05-05 13:24 | 48.35627 | 11.79424 | 1487 ft | 19 kts | 173° |
| 2026-05-05 13:24 | 48.35489 | 11.79448 | 1479 ft | 21 kts | 173° |
| 2026-05-05 13:24 | 48.35426 | 11.79459 | 1483 ft | 9 kts | 173° |
| 2026-05-05 13:24 | 48.35345 | 11.79473 | 1475 ft | 14 kts | 173° |
| 2026-05-05 13:25 | 48.35240 | 11.79491 | 1476 ft | 17 kts | 173° |
| 2026-05-05 13:25 | 48.35121 | 11.79513 | 1478 ft | 17 kts | 165° |
| 2026-05-05 13:25 | 48.35094 | 11.79602 | 1482 ft | 11 kts | 86° |
| 2026-05-05 13:25 | 48.35102 | 11.79723 | 1490 ft | 13 kts | 84° |
| 2026-05-05 13:26 | 48.35114 | 11.79862 | 1477 ft | 14 kts | 83° |
| 2026-05-05 13:26 | 48.35127 | 11.80021 | 1479 ft | 16 kts | 83° |
| 2026-05-05 13:26 | 48.35146 | 11.80170 | 1479 ft | 10 kts | 49° |
| 2026-05-05 13:26 | 48.35202 | 11.80183 | 1483 ft | 10 kts | 356° |
| 2026-05-05 13:27 | 48.35251 | 11.80156 | 1478 ft | 4 kts | 293° |
| 2026-05-05 13:27 | 48.35250 | 11.80116 | 1485 ft | 6 kts | 264° |
| 2026-05-05 13:27 | 48.35250 | 11.80110 | 1486 ft | 0 kts | 264° |
| 2026-05-05 13:28 | 48.35249 | 11.80105 | 1487 ft | 2 kts | 274° |
| 2026-05-05 13:28 | 48.35258 | 11.80077 | 1476 ft | 5 kts | 292° |
| 2026-05-05 13:28 | 48.35260 | 11.80051 | 1477 ft | 5 kts | 264° |
| 2026-05-05 13:28 | 48.35259 | 11.80031 | 1480 ft | 0 kts | 266° |
| 2026-05-05 13:29 | 48.35259 | 11.80023 | 1480 ft | 0 kts | 265° |
| 2026-05-05 13:29 | 48.35259 | 11.80015 | 1480 ft | 0 kts | 265° |
| 2026-05-05 13:29 | 48.35258 | 11.80011 | 1479 ft | 1 kts | 265° |
| 2026-05-05 13:29 | 48.35258 | 11.80009 | 1479 ft | 0 kts | 265° |